createdAt,value
2022-08-17T00:02:25.265Z,22.83
2022-08-17T00:04:55.093Z,22.76
2022-08-17T00:07:22.312Z,22.67
2022-08-17T00:09:49.157Z,22.57
2022-08-17T00:12:41.839Z,22.49
2022-08-17T00:15:05.248Z,22.38
2022-08-17T00:17:31.776Z,22.35
2022-08-17T00:19:58.405Z,22.36
2022-08-17T00:22:34.963Z,22.40
2022-08-17T00:25:07.563Z,22.42
2022-08-17T00:27:35.308Z,22.42
2022-08-17T00:30:01.974Z,22.37
2022-08-17T00:33:12.527Z,22.27
2022-08-17T00:35:17.715Z,22.18
2022-08-17T00:37:44.453Z,22.11
2022-08-17T00:40:14.423Z,22.07
2022-08-17T00:42:42.123Z,22.01
2022-08-17T00:45:11.736Z,22.00
2022-08-17T00:47:38.765Z,22.05
2022-08-17T00:50:09.447Z,22.11
2022-08-17T00:52:40.096Z,22.19
2022-08-17T00:55:09.160Z,22.21
2022-08-17T00:57:42.216Z,22.22
2022-08-17T01:00:18.817Z,22.24
2022-08-17T01:02:48.079Z,22.25
2022-08-17T01:05:19.673Z,22.26
2022-08-17T01:07:49.480Z,22.27
2022-08-17T01:10:59.040Z,22.28
2022-08-17T01:13:05.448Z,22.26
2022-08-17T01:15:36.344Z,22.21
2022-08-17T01:18:05.452Z,22.21
2022-08-17T01:20:48.304Z,22.18
2022-08-17T01:23:20.560Z,22.16
2022-08-17T01:25:58.162Z,22.17
2022-08-17T01:28:52.526Z,22.17
2022-08-17T01:31:16.698Z,22.19
2022-08-17T01:33:43.504Z,22.18
2022-08-17T01:36:10.518Z,22.17
2022-08-17T01:38:38.294Z,22.19
2022-08-17T01:41:12.518Z,22.21
2022-08-17T01:43:49.204Z,22.22
2022-08-17T01:46:21.919Z,22.22
2022-08-17T01:48:48.907Z,22.21
2022-08-17T01:51:16.025Z,22.21
2022-08-17T01:53:47.480Z,22.20
2022-08-17T01:56:17.992Z,22.16
2022-08-17T01:58:44.685Z,22.11
2022-08-17T02:01:12.479Z,22.08
2022-08-17T02:03:39.151Z,22.06
2022-08-17T02:06:12.000Z,22.03
2022-08-17T02:09:01.932Z,22.04
2022-08-17T02:11:32.304Z,22.01
2022-08-17T02:14:02.982Z,22.01
2022-08-17T02:16:37.744Z,22.01
2022-08-17T02:19:12.512Z,22.02
2022-08-17T02:21:41.561Z,22.03
2022-08-17T02:24:13.316Z,21.98
2022-08-17T02:26:39.883Z,21.89
2022-08-17T02:29:07.490Z,21.81
2022-08-17T02:31:35.504Z,21.75
2022-08-17T02:34:04.723Z,21.68
2022-08-17T02:36:34.504Z,21.65
2022-08-17T02:39:03.430Z,21.63
2022-08-17T02:41:30.460Z,21.56
2022-08-17T02:43:57.184Z,21.59
2022-08-17T02:46:23.814Z,21.56
2022-08-17T02:48:50.346Z,21.54
2022-08-17T02:51:17.188Z,21.49
2022-08-17T02:53:44.009Z,21.47
2022-08-17T02:56:10.738Z,21.45
2022-08-17T02:58:37.308Z,21.41
2022-08-17T03:01:06.013Z,21.39
2022-08-17T03:03:33.074Z,21.36
2022-08-17T03:05:59.964Z,21.33
2022-08-17T03:08:27.231Z,21.30
2022-08-17T03:10:54.083Z,21.31
2022-08-17T03:13:20.911Z,21.35
2022-08-17T03:15:48.783Z,21.40
2022-08-17T03:18:25.558Z,21.39
2022-08-17T03:21:00.813Z,21.43
2022-08-17T03:23:29.734Z,21.49
2022-08-17T03:25:57.273Z,21.52
2022-08-17T03:28:24.770Z,21.54
2022-08-17T03:30:52.260Z,21.55
2022-08-17T03:33:19.938Z,21.59
2022-08-17T03:35:47.194Z,21.61
2022-08-17T03:38:17.404Z,21.63
2022-08-17T03:40:56.569Z,21.57
2022-08-17T03:43:30.175Z,21.52
2022-08-17T03:46:28.233Z,21.47
2022-08-17T03:49:20.502Z,21.46
2022-08-17T03:52:05.720Z,21.45
2022-08-17T03:54:50.637Z,21.43
2022-08-17T03:57:17.963Z,21.42
2022-08-17T03:59:45.316Z,21.39
2022-08-17T04:02:18.948Z,21.36
2022-08-17T04:04:45.560Z,21.29
2022-08-17T04:07:12.544Z,21.25
2022-08-17T04:09:39.032Z,21.19
2022-08-17T04:12:06.047Z,21.16
2022-08-17T04:14:51.712Z,21.13
2022-08-17T04:17:20.491Z,21.10
2022-08-17T04:19:47.127Z,21.09
2022-08-17T04:22:31.159Z,21.07
2022-08-17T04:25:01.515Z,21.05
2022-08-17T04:27:28.028Z,21.01
2022-08-17T04:29:55.980Z,20.99
2022-08-17T04:33:00.490Z,20.97
2022-08-17T04:35:09.815Z,20.97
2022-08-17T04:37:36.386Z,20.91
2022-08-17T04:40:22.148Z,20.85
2022-08-17T04:43:07.287Z,20.80
2022-08-17T04:45:38.119Z,20.76
2022-08-17T04:48:04.817Z,20.72
2022-08-17T04:50:31.316Z,20.71
2022-08-17T04:52:58.121Z,20.67
2022-08-17T04:55:24.992Z,20.64
2022-08-17T04:57:51.578Z,20.63
2022-08-17T05:00:18.884Z,20.62
2022-08-17T05:02:49.930Z,20.60
2022-08-17T05:05:24.861Z,20.59
2022-08-17T05:07:54.412Z,20.59
2022-08-17T05:10:23.206Z,20.59
2022-08-17T05:13:05.230Z,20.59
2022-08-17T05:15:33.191Z,20.55
2022-08-17T05:18:03.260Z,20.45
2022-08-17T05:20:30.170Z,20.39
2022-08-17T05:23:00.334Z,20.41
2022-08-17T05:25:31.631Z,20.43
2022-08-17T05:28:02.209Z,20.45
2022-08-17T05:30:28.978Z,20.44
2022-08-17T05:33:13.636Z,20.41
2022-08-17T05:35:44.402Z,20.42
2022-08-17T05:38:11.414Z,20.43
2022-08-17T05:40:38.350Z,20.40
2022-08-17T05:43:08.365Z,20.38
2022-08-17T05:45:55.809Z,20.37
2022-08-17T05:48:35.506Z,20.36
2022-08-17T05:51:28.321Z,20.31
2022-08-17T05:54:26.068Z,20.27
2022-08-17T05:57:06.299Z,20.21
2022-08-17T05:59:44.972Z,20.20
2022-08-17T06:02:27.086Z,20.24
2022-08-17T06:04:56.224Z,20.26
2022-08-17T06:07:49.793Z,20.27
2022-08-17T06:10:43.925Z,20.26
2022-08-17T06:13:28.842Z,20.27
2022-08-17T06:15:56.100Z,20.31
2022-08-17T06:18:28.616Z,20.40
2022-08-17T06:21:00.417Z,20.46
2022-08-17T06:23:32.440Z,20.51
2022-08-17T06:26:06.031Z,20.57
2022-08-17T06:28:51.697Z,20.62
2022-08-17T06:31:29.213Z,20.60
2022-08-17T06:33:58.214Z,20.63
2022-08-17T06:36:42.078Z,20.67
2022-08-17T06:39:27.121Z,20.70
2022-08-17T06:41:59.469Z,20.70
2022-08-17T06:44:42.258Z,20.69
2022-08-17T06:47:40.846Z,20.71
2022-08-17T06:50:27.410Z,20.73
2022-08-17T06:53:20.936Z,20.76
2022-08-17T06:56:03.948Z,20.78
2022-08-17T06:58:33.218Z,20.79
2022-08-17T07:01:13.013Z,20.79
2022-08-17T07:03:45.524Z,20.81
2022-08-17T07:06:18.487Z,20.83
2022-08-17T07:09:06.293Z,20.85
2022-08-17T07:11:48.764Z,20.85
2022-08-17T07:14:53.498Z,20.86
2022-08-17T07:17:22.402Z,20.88
2022-08-17T07:20:16.206Z,20.93
2022-08-17T07:23:08.662Z,20.93
2022-08-17T07:25:36.499Z,20.93
2022-08-17T07:28:07.097Z,20.94
2022-08-17T07:30:49.011Z,20.97
2022-08-17T07:33:23.783Z,20.97
2022-08-17T07:35:51.105Z,20.95
2022-08-17T07:38:28.507Z,20.97
2022-08-17T07:40:57.555Z,20.96
2022-08-17T07:43:29.607Z,20.67
2022-08-17T07:46:35.449Z,20.48
2022-08-17T07:49:06.713Z,20.30
2022-08-17T07:51:53.480Z,20.21
2022-08-17T07:54:31.650Z,20.19
2022-08-17T07:57:13.487Z,20.19
2022-08-17T07:59:43.403Z,20.22
2022-08-17T08:02:33.741Z,20.24
2022-08-17T08:05:46.654Z,20.24
2022-08-17T08:08:30.846Z,20.24
2022-08-17T08:11:11.357Z,20.27
2022-08-17T08:13:47.209Z,20.30
2022-08-17T08:16:16.892Z,20.31
2022-08-17T08:18:55.827Z,20.35
2022-08-17T08:21:53.601Z,20.41
2022-08-17T08:24:43.761Z,20.47
2022-08-17T08:27:37.628Z,20.52
2022-08-17T08:30:10.747Z,20.56
2022-08-17T08:32:57.559Z,20.58
2022-08-17T08:35:50.193Z,20.60
2022-08-17T08:38:26.760Z,20.66
2022-08-17T08:41:37.014Z,20.70
2022-08-17T08:45:00.821Z,20.78
2022-08-17T08:47:35.513Z,20.89
2022-08-17T08:50:08.177Z,20.95
2022-08-17T08:53:21.338Z,21.02
2022-08-17T08:55:51.811Z,20.97
2022-08-17T08:58:44.678Z,20.89
2022-08-17T09:01:40.245Z,20.88
2022-08-17T09:04:27.451Z,20.79
2022-08-17T09:07:34.882Z,20.79
2022-08-17T09:10:15.184Z,20.79
2022-08-17T09:12:57.112Z,20.70
2022-08-17T09:15:37.977Z,20.70
2022-08-17T09:19:01.661Z,20.72
2022-08-17T09:21:10.655Z,20.79
2022-08-17T09:24:15.658Z,20.87
2022-08-17T09:27:03.105Z,20.93
2022-08-17T09:29:35.096Z,20.96
2022-08-17T09:32:09.672Z,21.00
2022-08-17T09:37:56.938Z,21.06
2022-08-17T09:40:37.709Z,20.94
2022-08-17T09:43:30.725Z,20.43
2022-08-17T09:46:16.825Z,19.73
2022-08-17T09:48:57.667Z,19.22
2022-08-17T09:51:36.179Z,18.99
2022-08-17T09:54:36.957Z,18.82
2022-08-17T09:57:32.382Z,18.76
2022-08-17T10:00:17.992Z,18.83
2022-08-17T10:03:18.234Z,18.95
2022-08-17T10:05:57.723Z,19.09
2022-08-17T10:08:48.205Z,19.33
2022-08-17T10:11:52.176Z,19.55
2022-08-17T10:14:44.110Z,19.70
2022-08-17T10:17:24.476Z,19.88
2022-08-17T10:20:19.793Z,20.02
2022-08-17T10:23:24.313Z,20.20
2022-08-17T10:26:20.589Z,20.35
2022-08-17T10:28:59.106Z,20.47
2022-08-17T10:31:36.254Z,20.51
2022-08-17T10:34:03.079Z,20.54
2022-08-17T10:36:46.214Z,20.56
2022-08-17T10:39:26.769Z,20.61
2022-08-17T10:42:00.834Z,20.65
2022-08-17T10:44:48.482Z,20.70
2022-08-17T10:47:17.631Z,20.76
2022-08-17T10:49:53.893Z,20.80
2022-08-17T10:52:20.929Z,20.90
2022-08-17T10:54:57.922Z,20.90
2022-08-17T10:57:34.323Z,20.96
2022-08-17T11:00:42.843Z,20.97
2022-08-17T11:03:21.127Z,20.97
2022-08-17T11:05:55.749Z,21.03
2022-08-17T11:08:40.711Z,21.11
2022-08-17T11:11:35.882Z,21.15
2022-08-17T11:14:33.010Z,21.23
2022-08-17T11:17:24.091Z,21.29
2022-08-17T11:20:04.795Z,21.34
2022-08-17T11:22:49.766Z,21.35
2022-08-17T11:25:20.592Z,21.37
2022-08-17T11:27:53.950Z,21.39
2022-08-17T11:30:50.908Z,21.35
2022-08-17T11:33:29.662Z,21.30
2022-08-17T11:36:29.445Z,21.26
2022-08-17T11:39:25.094Z,21.12
2022-08-17T11:42:08.863Z,20.98
2022-08-17T11:44:52.224Z,20.88
2022-08-17T11:48:16.042Z,20.76
2022-08-17T11:51:06.148Z,20.64
2022-08-17T11:53:38.809Z,20.56
2022-08-17T11:56:29.007Z,20.52
2022-08-17T11:58:56.160Z,20.48
2022-08-17T12:01:56.605Z,20.51
2022-08-17T12:04:34.185Z,20.46
2022-08-17T12:07:10.584Z,20.40
2022-08-17T12:09:45.578Z,20.36
2022-08-17T12:12:29.750Z,20.32
2022-08-17T12:15:10.146Z,20.27
2022-08-17T12:17:41.162Z,20.19
2022-08-17T12:20:15.589Z,20.12
2022-08-17T12:23:01.169Z,20.06
2022-08-17T12:25:37.950Z,20.04
2022-08-17T12:28:20.052Z,20.05
2022-08-17T12:30:52.164Z,20.06
2022-08-17T12:33:24.982Z,20.02
2022-08-17T12:36:03.251Z,20.01
2022-08-17T12:38:35.017Z,20.01
2022-08-17T12:41:22.494Z,20.02
2022-08-17T12:44:26.110Z,20.04
2022-08-17T12:47:18.079Z,20.06
2022-08-17T12:49:51.571Z,20.06
2022-08-17T12:52:33.031Z,20.06
2022-08-17T12:55:05.664Z,20.09
2022-08-17T12:57:37.995Z,20.08
2022-08-17T13:00:11.517Z,20.11
2022-08-17T13:02:49.310Z,20.14
2022-08-17T13:05:26.165Z,20.19
2022-08-17T13:07:55.861Z,20.23
2022-08-17T13:10:33.093Z,20.26
2022-08-17T13:13:06.040Z,20.26
2022-08-17T13:15:45.091Z,20.31
2022-08-17T13:18:39.401Z,20.33
2022-08-17T13:21:12.523Z,20.32
2022-08-17T13:23:39.247Z,20.34
2022-08-17T13:26:16.464Z,20.34
2022-08-17T13:28:50.122Z,20.37
2022-08-17T13:31:28.480Z,20.35
2022-08-17T13:34:26.929Z,20.32
2022-08-17T13:37:17.814Z,20.32
2022-08-17T13:39:48.437Z,20.31
2022-08-17T13:42:53.576Z,20.32
2022-08-17T13:45:36.156Z,20.32
2022-08-17T13:48:13.761Z,20.34
2022-08-17T13:50:46.765Z,20.34
2022-08-17T13:53:20.608Z,20.34
2022-08-17T13:55:53.002Z,20.36
2022-08-17T13:58:27.759Z,20.37
2022-08-17T14:00:56.269Z,20.38
2022-08-17T14:03:24.935Z,20.40
2022-08-17T14:05:52.991Z,20.42
2022-08-17T14:08:20.773Z,20.41
2022-08-17T14:10:57.849Z,20.44
2022-08-17T14:13:24.494Z,20.47
2022-08-17T14:15:56.364Z,20.50
2022-08-17T14:18:49.826Z,20.53
2022-08-17T14:21:10.377Z,20.55
2022-08-17T14:23:37.213Z,20.57
2022-08-17T14:26:04.280Z,20.59
2022-08-17T14:28:32.205Z,20.63
2022-08-17T14:31:00.731Z,20.63
2022-08-17T14:33:29.589Z,20.66
2022-08-17T14:35:57.714Z,20.70
2022-08-17T14:38:24.890Z,20.71
2022-08-17T14:40:51.798Z,20.75
2022-08-17T14:43:18.813Z,20.76
2022-08-17T14:45:45.551Z,20.79
2022-08-17T14:48:12.109Z,20.83
2022-08-17T14:50:42.457Z,20.85
2022-08-17T14:53:11.948Z,20.88
2022-08-17T14:55:40.015Z,20.90
2022-08-17T14:58:07.837Z,20.91
2022-08-17T15:00:34.985Z,20.93
2022-08-17T15:03:02.209Z,20.96
2022-08-17T15:05:33.514Z,21.00
2022-08-17T15:08:02.353Z,21.01
2022-08-17T15:10:29.884Z,21.03
2022-08-17T15:12:57.406Z,21.07
2022-08-17T15:15:24.319Z,21.08
2022-08-17T15:17:51.580Z,21.12
2022-08-17T15:20:21.092Z,21.12
2022-08-17T15:22:49.826Z,21.12
2022-08-17T15:25:18.042Z,21.13
2022-08-17T15:27:44.846Z,21.13
2022-08-17T15:30:12.054Z,21.14
2022-08-17T15:32:40.863Z,21.17
2022-08-17T15:35:13.119Z,21.19
2022-08-17T15:37:40.405Z,21.21
2022-08-17T15:40:08.412Z,21.25
2022-08-17T15:42:36.659Z,21.30
2022-08-17T15:45:10.413Z,21.31
2022-08-17T15:47:37.882Z,21.34
2022-08-17T15:50:06.717Z,21.36
2022-08-17T15:52:40.264Z,21.39
2022-08-17T15:55:11.215Z,21.41
2022-08-17T15:57:38.027Z,21.44
2022-08-17T16:00:07.394Z,21.44
2022-08-17T16:03:45.398Z,21.46
2022-08-17T16:05:27.147Z,21.52
2022-08-17T16:07:55.271Z,21.55
2022-08-17T16:10:22.861Z,21.57
2022-08-17T16:13:02.011Z,21.60
2022-08-17T16:15:31.058Z,21.59
2022-08-17T16:17:57.586Z,21.59
2022-08-17T16:20:24.422Z,21.59
2022-08-17T16:22:51.517Z,21.60
2022-08-17T16:25:22.113Z,21.64
2022-08-17T16:27:53.532Z,21.67
2022-08-17T16:30:23.638Z,21.68
2022-08-17T16:32:51.725Z,21.70
2022-08-17T16:35:21.288Z,21.71
2022-08-17T16:37:48.586Z,21.73
2022-08-17T16:40:16.681Z,21.76
2022-08-17T16:42:45.833Z,21.78
2022-08-17T16:45:16.729Z,21.81
2022-08-17T16:47:43.612Z,21.83
2022-08-17T16:50:14.353Z,21.85
2022-08-17T16:52:41.810Z,21.85
2022-08-17T16:55:10.561Z,21.86
2022-08-17T16:57:47.202Z,21.88
2022-08-17T17:00:17.968Z,21.88
2022-08-17T17:02:47.481Z,21.88
2022-08-17T17:05:33.036Z,21.86
2022-08-17T17:08:13.408Z,21.87
2022-08-17T17:10:44.661Z,21.87
2022-08-17T17:13:24.601Z,21.87
2022-08-17T17:15:57.603Z,21.87
2022-08-17T17:18:37.527Z,21.87
2022-08-17T17:21:06.303Z,21.87
2022-08-17T17:23:54.572Z,21.86
2022-08-17T17:26:58.967Z,21.83
2022-08-17T17:29:49.692Z,21.83
2022-08-17T17:32:31.153Z,21.82
2022-08-17T17:35:04.691Z,21.82
2022-08-17T17:37:35.182Z,21.82
2022-08-17T17:40:13.107Z,21.81
2022-08-17T17:42:42.772Z,21.81
2022-08-17T17:45:15.208Z,21.79
2022-08-17T17:47:41.736Z,21.77
2022-08-17T17:50:08.908Z,21.76
2022-08-17T17:52:47.537Z,21.73
2022-08-17T17:55:22.970Z,21.73
2022-08-17T17:58:17.213Z,21.71
2022-08-17T18:01:08.459Z,21.70
2022-08-17T18:03:40.749Z,21.69
2022-08-17T18:06:21.441Z,21.69
2022-08-17T18:09:19.470Z,21.69
2022-08-17T18:12:08.765Z,21.66
2022-08-17T18:15:04.204Z,21.63
2022-08-17T18:17:31.013Z,21.63
2022-08-17T18:19:57.526Z,21.58
2022-08-17T18:22:24.862Z,21.55
2022-08-17T18:24:56.497Z,21.54
2022-08-17T18:27:38.815Z,21.50
2022-08-17T18:30:14.411Z,21.46
2022-08-17T18:32:43.573Z,21.42
2022-08-17T18:35:10.184Z,21.40
2022-08-17T18:37:57.579Z,21.36
2022-08-17T18:40:30.211Z,21.30
2022-08-17T18:43:26.890Z,21.24
2022-08-17T18:45:56.150Z,21.21
2022-08-17T18:48:26.989Z,21.20
2022-08-17T18:51:00.393Z,21.15
2022-08-17T18:53:34.182Z,21.08
2022-08-17T18:56:20.127Z,21.01
2022-08-17T18:59:05.569Z,20.95
2022-08-17T19:02:16.004Z,20.88
2022-08-17T19:05:00.944Z,20.85
2022-08-17T19:07:33.663Z,20.80
2022-08-17T19:10:09.290Z,20.72
2022-08-17T19:13:00.885Z,20.68
2022-08-17T19:15:37.953Z,20.63
2022-08-17T19:18:22.867Z,20.59
2022-08-17T19:21:07.306Z,20.60
2022-08-17T19:23:54.094Z,20.60
2022-08-17T19:26:50.741Z,20.59
2022-08-17T19:29:25.665Z,20.57
2022-08-17T19:31:57.625Z,20.54
2022-08-17T19:34:33.454Z,20.52
2022-08-17T19:37:20.931Z,20.52
2022-08-17T19:40:24.442Z,20.49
2022-08-17T19:43:04.113Z,20.48
2022-08-17T19:45:49.245Z,20.47
2022-08-17T19:48:35.512Z,20.46
2022-08-17T19:51:09.857Z,20.45
2022-08-17T19:54:04.922Z,20.42
2022-08-17T19:57:01.559Z,20.41
2022-08-17T19:59:53.730Z,20.39
2022-08-17T20:02:47.859Z,20.38
2022-08-17T20:05:23.970Z,20.37
2022-08-17T20:07:58.067Z,20.37
2022-08-17T20:10:54.854Z,20.35
2022-08-17T20:13:33.371Z,20.34
2022-08-17T20:16:01.314Z,20.31
2022-08-17T20:18:36.916Z,20.28
2022-08-17T20:21:20.282Z,20.25
2022-08-17T20:24:04.333Z,20.23
2022-08-17T20:26:58.670Z,20.19
2022-08-17T20:30:07.260Z,20.18
2022-08-17T20:32:53.198Z,20.13
2022-08-17T20:35:36.470Z,20.10
2022-08-17T20:38:12.814Z,20.09
2022-08-17T20:40:57.433Z,20.04
2022-08-17T20:43:32.780Z,19.99
2022-08-17T20:46:02.367Z,19.94
2022-08-17T20:48:38.425Z,19.91
2022-08-17T20:51:22.561Z,19.88
2022-08-17T20:53:54.946Z,19.85
2022-08-17T20:56:43.781Z,19.83
2022-08-17T20:59:30.420Z,19.81
2022-08-17T21:02:18.534Z,19.78
2022-08-17T21:04:52.303Z,19.75
2022-08-17T21:07:29.791Z,19.74
2022-08-17T21:10:28.081Z,19.70
2022-08-17T21:13:13.510Z,19.69
2022-08-17T21:15:48.538Z,19.67
2022-08-17T21:18:34.033Z,19.65
2022-08-17T21:21:17.803Z,19.65
2022-08-17T21:24:09.528Z,19.63
2022-08-17T21:27:12.395Z,19.60
2022-08-17T21:30:10.291Z,19.59
2022-08-17T21:32:41.795Z,19.58
2022-08-17T21:35:11.429Z,19.56
2022-08-17T21:37:42.117Z,19.54
2022-08-17T21:40:18.005Z,19.53
2022-08-17T21:42:48.897Z,19.49
2022-08-17T21:45:24.416Z,19.47
2022-08-17T21:48:09.005Z,19.44
2022-08-17T21:50:36.200Z,19.42
2022-08-17T21:53:06.355Z,19.43
2022-08-17T21:55:36.185Z,19.41
2022-08-17T21:58:14.178Z,19.39
2022-08-17T22:00:42.467Z,19.37
2022-08-17T22:03:24.067Z,19.38
2022-08-17T22:05:51.563Z,19.37
2022-08-17T22:08:21.999Z,19.36
2022-08-17T22:10:51.292Z,19.36
2022-08-17T22:13:17.938Z,19.36
2022-08-17T22:15:48.013Z,19.32
2022-08-17T22:18:21.427Z,19.29
2022-08-17T22:20:53.735Z,19.28
2022-08-17T22:23:51.680Z,19.28
2022-08-17T22:26:21.671Z,19.24
2022-08-17T22:28:54.300Z,19.20
2022-08-17T22:31:24.190Z,19.19
2022-08-17T22:34:12.291Z,19.19
2022-08-17T22:36:41.807Z,19.16
2022-08-17T22:39:11.155Z,19.13
2022-08-17T22:41:41.228Z,19.13
2022-08-17T22:44:20.800Z,19.12
2022-08-17T22:46:56.217Z,19.10
2022-08-17T22:49:29.115Z,19.11
2022-08-17T22:52:03.722Z,19.11
2022-08-17T22:54:49.775Z,19.11
2022-08-17T22:57:36.288Z,19.08
2022-08-17T23:00:04.872Z,19.08
2022-08-17T23:02:34.931Z,19.06
2022-08-17T23:05:13.125Z,19.05
2022-08-17T23:07:40.637Z,19.08
2022-08-17T23:10:09.612Z,19.08
2022-08-17T23:12:39.869Z,19.08
2022-08-17T23:15:14.349Z,19.06
2022-08-17T23:17:41.993Z,19.03
2022-08-17T23:20:14.280Z,19.02
2022-08-17T23:22:51.203Z,19.00
2022-08-17T23:25:29.564Z,18.95
2022-08-17T23:27:58.509Z,18.94
2022-08-17T23:30:25.734Z,18.95
2022-08-17T23:32:54.309Z,18.96
2022-08-17T23:35:40.335Z,18.94
2022-08-17T23:38:09.027Z,18.90
2022-08-17T23:40:35.858Z,18.88
2022-08-17T23:43:17.622Z,18.84
2022-08-17T23:45:54.806Z,18.77
2022-08-17T23:48:27.832Z,18.73
2022-08-17T23:51:09.148Z,18.68
2022-08-17T23:53:37.615Z,18.67
2022-08-17T23:56:09.278Z,18.64
2022-08-17T23:58:38.972Z,18.59
